AFL2505 ULAA-UUEE
Flight info
| Callsign | AFL2505 |
|---|---|
| Flight time | 1h 27m |
| Altitude | 35000 |
| Route | ABELU T825 UREPI P65 ROMTA |
| Aircraft | A320/M-V/N |
Departure
| Time | 2026-04-23 11:22 |
|---|---|
| Airport | Talagi Airport (ULAA) |
Arrival
| Time | 2026-04-23 12:50 |
|---|---|
| Airport | Sheremetyevo International Airport (UUEE) |
| Time | Latitude | Longitude | Altitude | Speed | Heading |
|---|---|---|---|---|---|
| 2026-04-23 11:08 | 64.59660 | 40.71479 | 40 ft | 0 kts | 186° |
| 2026-04-23 11:15 | 64.59673 | 40.71483 | 11 ft | 4 kts | 192° |
| 2026-04-23 11:15 | 64.59698 | 40.71503 | 36 ft | 4 kts | 216° |
| 2026-04-23 11:15 | 64.59713 | 40.71546 | 40 ft | 3 kts | 272° |
| 2026-04-23 11:15 | 64.59712 | 40.71564 | 37 ft | 0 kts | 276° |
| 2026-04-23 11:18 | 64.59714 | 40.71523 | 38 ft | 7 kts | 276° |
| 2026-04-23 11:18 | 64.59725 | 40.71324 | 38 ft | 15 kts | 287° |
| 2026-04-23 11:18 | 64.59804 | 40.71278 | 40 ft | 11 kts | 357° |
| 2026-04-23 11:19 | 64.59842 | 40.71132 | 38 ft | 12 kts | 276° |
| 2026-04-23 11:19 | 64.59853 | 40.70889 | 40 ft | 20 kts | 277° |
| 2026-04-23 11:19 | 64.59872 | 40.70535 | 40 ft | 24 kts | 276° |
| 2026-04-23 11:19 | 64.59891 | 40.70136 | 40 ft | 26 kts | 277° |
| 2026-04-23 11:20 | 64.59911 | 40.69717 | 40 ft | 26 kts | 276° |
| 2026-04-23 11:20 | 64.59932 | 40.69286 | 40 ft | 27 kts | 276° |
| 2026-04-23 11:20 | 64.59942 | 40.69079 | 40 ft | 4 kts | 279° |
| 2026-04-23 11:20 | 64.59966 | 40.69033 | 40 ft | 6 kts | 352° |
| 2026-04-23 11:21 | 64.60016 | 40.69044 | 40 ft | 9 kts | 7° |
| 2026-04-23 11:21 | 64.60086 | 40.69060 | 39 ft | 12 kts | 5° |
| 2026-04-23 11:21 | 64.60146 | 40.69183 | 37 ft | 14 kts | 90° |
| 2026-04-23 11:21 | 64.60144 | 40.69311 | 37 ft | 1 kts | 97° |
| 2026-04-23 11:22 | 64.60141 | 40.69365 | 37 ft | 11 kts | 97° |
| 2026-04-23 11:22 | 64.60102 | 40.70258 | 36 ft | 98 kts | 98° |
| 2026-04-23 11:22 | 64.59986 | 40.72373 | 94 ft | 156 kts | 94° |
| 2026-04-23 11:22 | 64.59843 | 40.74802 | 1012 ft | 152 kts | 94° |
| 2026-04-23 11:23 | 64.59677 | 40.77292 | 1860 ft | 158 kts | 94° |
| 2026-04-23 11:23 | 64.59494 | 40.79849 | 2582 ft | 162 kts | 94° |
| 2026-04-23 11:23 | 64.59319 | 40.82474 | 3294 ft | 165 kts | 93° |
| 2026-04-23 11:23 | 64.58946 | 40.85030 | 4012 ft | 173 kts | 117° |
| 2026-04-23 11:24 | 64.58103 | 40.87060 | 4731 ft | 178 kts | 151° |
| 2026-04-23 11:24 | 64.56932 | 40.87806 | 5446 ft | 174 kts | 186° |
| 2026-04-23 11:24 | 64.55738 | 40.87156 | 6004 ft | 183 kts | 208° |
| 2026-04-23 11:24 | 64.54489 | 40.85990 | 6467 ft | 202 kts | 207° |
| 2026-04-23 11:25 | 64.53123 | 40.84745 | 6951 ft | 221 kts | 206° |
| 2026-04-23 11:25 | 64.51604 | 40.83400 | 7348 ft | 245 kts | 205° |
| 2026-04-23 11:25 | 64.49955 | 40.81976 | 7884 ft | 266 kts | 204° |
| 2026-04-23 11:25 | 64.48157 | 40.80439 | 8491 ft | 282 kts | 204° |
| 2026-04-23 11:26 | 64.46294 | 40.78861 | 9466 ft | 285 kts | 204° |
| 2026-04-23 11:26 | 64.44421 | 40.77280 | 10385 ft | 290 kts | 204° |
| 2026-04-23 11:26 | 64.42451 | 40.75603 | 10805 ft | 312 kts | 204° |
| 2026-04-23 11:26 | 64.40338 | 40.73797 | 11142 ft | 334 kts | 203° |
| 2026-04-23 11:27 | 64.38160 | 40.71948 | 11885 ft | 340 kts | 203° |
| 2026-04-23 11:27 | 64.35915 | 40.70050 | 12797 ft | 343 kts | 203° |
| 2026-04-23 11:27 | 64.33657 | 40.68142 | 13622 ft | 347 kts | 203° |
| 2026-04-23 11:27 | 64.31386 | 40.66227 | 14467 ft | 347 kts | 203° |
| 2026-04-23 11:28 | 64.29113 | 40.64310 | 15310 ft | 348 kts | 203° |
| 2026-04-23 11:28 | 64.26856 | 40.62410 | 16129 ft | 350 kts | 202° |
| 2026-04-23 11:28 | 64.24550 | 40.60473 | 16927 ft | 352 kts | 202° |
| 2026-04-23 11:28 | 64.22233 | 40.58526 | 17681 ft | 355 kts | 202° |
| 2026-04-23 11:29 | 64.19898 | 40.56567 | 18364 ft | 358 kts | 202° |
| 2026-04-23 11:29 | 64.17568 | 40.54616 | 18960 ft | 362 kts | 202° |
| 2026-04-23 11:29 | 64.15182 | 40.52624 | 19575 ft | 366 kts | 202° |
| 2026-04-23 11:29 | 64.12773 | 40.50619 | 20184 ft | 370 kts | 202° |
| 2026-04-23 11:30 | 64.10342 | 40.48597 | 20805 ft | 374 kts | 202° |
| 2026-04-23 11:30 | 64.07876 | 40.46549 | 21395 ft | 378 kts | 202° |
| 2026-04-23 11:30 | 64.05423 | 40.44520 | 21997 ft | 381 kts | 202° |
| 2026-04-23 11:30 | 64.02907 | 40.42443 | 22584 ft | 385 kts | 202° |
| 2026-04-23 11:31 | 64.00374 | 40.40353 | 23170 ft | 389 kts | 202° |
| 2026-04-23 11:31 | 63.97816 | 40.38244 | 23624 ft | 393 kts | 202° |
| 2026-04-23 11:31 | 63.95214 | 40.36101 | 24055 ft | 398 kts | 202° |
| 2026-04-23 11:31 | 63.92617 | 40.33966 | 24463 ft | 403 kts | 202° |
| 2026-04-23 11:32 | 63.89969 | 40.31794 | 24896 ft | 407 kts | 202° |
| 2026-04-23 11:32 | 63.87285 | 40.29597 | 25309 ft | 411 kts | 202° |
| 2026-04-23 11:32 | 63.84575 | 40.27384 | 25717 ft | 415 kts | 202° |
| 2026-04-23 11:32 | 63.81833 | 40.25149 | 26093 ft | 420 kts | 202° |
| 2026-04-23 11:33 | 63.79065 | 40.22897 | 26482 ft | 424 kts | 202° |
| 2026-04-23 11:33 | 63.76301 | 40.20654 | 26855 ft | 428 kts | 202° |
| 2026-04-23 11:33 | 63.73477 | 40.18366 | 27229 ft | 432 kts | 202° |
| 2026-04-23 11:33 | 63.70619 | 40.16097 | 27570 ft | 437 kts | 201° |
| 2026-04-23 11:34 | 63.67717 | 40.13873 | 27924 ft | 441 kts | 201° |
| 2026-04-23 11:34 | 63.64833 | 40.11685 | 28271 ft | 444 kts | 201° |
| 2026-04-23 11:34 | 63.61885 | 40.09449 | 28605 ft | 448 kts | 201° |
| 2026-04-23 11:34 | 63.58913 | 40.07191 | 28905 ft | 452 kts | 201° |
| 2026-04-23 11:35 | 63.55916 | 40.04912 | 29227 ft | 455 kts | 201° |
| 2026-04-23 11:35 | 63.52894 | 40.02617 | 29550 ft | 459 kts | 201° |
| 2026-04-23 11:35 | 63.49897 | 40.00345 | 29828 ft | 462 kts | 201° |
| 2026-04-23 11:35 | 63.46834 | 39.98027 | 30090 ft | 465 kts | 201° |
| 2026-04-23 11:36 | 63.43752 | 39.95692 | 30375 ft | 468 kts | 201° |
| 2026-04-23 11:36 | 63.40684 | 39.93131 | 30651 ft | 470 kts | 204° |
| 2026-04-23 11:36 | 63.37680 | 39.90464 | 30984 ft | 471 kts | 204° |
| 2026-04-23 11:36 | 63.34636 | 39.87744 | 31319 ft | 472 kts | 204° |
| 2026-04-23 11:37 | 63.31575 | 39.85037 | 31669 ft | 472 kts | 204° |
| 2026-04-23 11:37 | 63.28502 | 39.82354 | 32024 ft | 473 kts | 203° |
| 2026-04-23 11:37 | 63.25430 | 39.79695 | 32368 ft | 473 kts | 203° |
| 2026-04-23 11:37 | 63.22354 | 39.77046 | 32684 ft | 474 kts | 203° |
| 2026-04-23 11:38 | 63.19325 | 39.74446 | 33012 ft | 474 kts | 203° |
| 2026-04-23 11:38 | 63.16230 | 39.71798 | 33337 ft | 475 kts | 203° |
| 2026-04-23 11:38 | 63.13135 | 39.69154 | 33645 ft | 475 kts | 203° |
| 2026-04-23 11:38 | 63.10082 | 39.66552 | 33902 ft | 475 kts | 202° |
| 2026-04-23 11:39 | 63.06954 | 39.63893 | 34161 ft | 475 kts | 202° |
| 2026-04-23 11:39 | 63.03907 | 39.61308 | 34413 ft | 475 kts | 202° |
| 2026-04-23 11:39 | 63.00806 | 39.58683 | 34656 ft | 475 kts | 202° |
| 2026-04-23 11:39 | 62.97699 | 39.56058 | 34870 ft | 476 kts | 202° |
| 2026-04-23 11:40 | 62.94641 | 39.53481 | 35006 ft | 476 kts | 202° |
| 2026-04-23 11:40 | 62.88444 | 39.48278 | 35016 ft | 474 kts | 202° |
| 2026-04-23 11:41 | 62.82298 | 39.43140 | 35013 ft | 475 kts | 202° |
| 2026-04-23 11:41 | 62.76101 | 39.37983 | 35022 ft | 475 kts | 202° |
| 2026-04-23 11:42 | 62.69943 | 39.32881 | 35017 ft | 476 kts | 202° |
| 2026-04-23 11:42 | 62.63745 | 39.27769 | 35014 ft | 476 kts | 202° |
| 2026-04-23 11:43 | 62.57538 | 39.22672 | 35018 ft | 476 kts | 202° |
| 2026-04-23 11:43 | 62.51366 | 39.17627 | 35018 ft | 476 kts | 202° |
| 2026-04-23 11:44 | 62.45159 | 39.12576 | 35022 ft | 477 kts | 202° |
| 2026-04-23 11:44 | 62.38944 | 39.07540 | 35021 ft | 477 kts | 202° |
| 2026-04-23 11:45 | 62.32752 | 39.02545 | 35016 ft | 477 kts | 202° |
| 2026-04-23 11:45 | 62.26517 | 38.97538 | 35022 ft | 477 kts | 202° |
| 2026-04-23 11:46 | 62.20286 | 38.92556 | 35021 ft | 477 kts | 202° |
| 2026-04-23 11:46 | 62.14049 | 38.87591 | 35018 ft | 477 kts | 202° |
| 2026-04-23 11:47 | 62.07845 | 38.82675 | 35025 ft | 478 kts | 202° |
| 2026-04-23 11:47 | 62.01609 | 38.77754 | 35028 ft | 478 kts | 202° |
| 2026-04-23 11:48 | 61.95351 | 38.72837 | 35018 ft | 478 kts | 202° |
| 2026-04-23 11:48 | 61.88978 | 38.68783 | 35018 ft | 483 kts | 192° |
| 2026-04-23 11:49 | 61.82382 | 38.66031 | 35019 ft | 482 kts | 192° |
| 2026-04-23 11:49 | 61.75823 | 38.63273 | 35012 ft | 482 kts | 192° |
| 2026-04-23 11:50 | 61.69225 | 38.60486 | 35013 ft | 482 kts | 192° |
| 2026-04-23 11:50 | 61.62657 | 38.57720 | 35013 ft | 482 kts | 192° |
| 2026-04-23 11:51 | 61.56079 | 38.54962 | 35011 ft | 482 kts | 192° |
| 2026-04-23 11:51 | 61.49485 | 38.52211 | 35008 ft | 482 kts | 192° |
| 2026-04-23 11:52 | 61.42898 | 38.49473 | 35005 ft | 482 kts | 192° |
| 2026-04-23 11:52 | 61.36339 | 38.46760 | 35001 ft | 482 kts | 192° |
| 2026-04-23 11:53 | 61.29747 | 38.44044 | 34999 ft | 482 kts | 192° |
| 2026-04-23 11:53 | 61.23175 | 38.41482 | 34998 ft | 482 kts | 187° |
| 2026-04-23 11:54 | 61.16521 | 38.40051 | 35000 ft | 482 kts | 186° |
| 2026-04-23 11:54 | 61.09839 | 38.38648 | 34998 ft | 482 kts | 186° |
| 2026-04-23 11:55 | 61.03194 | 38.37243 | 34995 ft | 482 kts | 186° |
| 2026-04-23 11:55 | 60.96513 | 38.35832 | 34991 ft | 481 kts | 186° |
| 2026-04-23 11:56 | 60.89840 | 38.34429 | 34990 ft | 481 kts | 186° |
| 2026-04-23 11:56 | 60.83194 | 38.33037 | 34989 ft | 481 kts | 186° |
| 2026-04-23 11:57 | 60.76513 | 38.31644 | 34987 ft | 481 kts | 186° |
| 2026-04-23 11:57 | 60.69886 | 38.30268 | 34985 ft | 481 kts | 186° |
| 2026-04-23 11:58 | 60.63215 | 38.28888 | 34982 ft | 481 kts | 186° |
| 2026-04-23 11:58 | 60.56579 | 38.27521 | 34984 ft | 481 kts | 186° |
| 2026-04-23 11:59 | 60.49913 | 38.26154 | 34979 ft | 481 kts | 186° |
| 2026-04-23 11:59 | 60.43287 | 38.24801 | 34977 ft | 480 kts | 186° |
| 2026-04-23 12:00 | 60.36625 | 38.23446 | 34980 ft | 481 kts | 186° |
| 2026-04-23 12:00 | 60.29960 | 38.22096 | 34978 ft | 480 kts | 186° |
| 2026-04-23 12:01 | 60.23334 | 38.20757 | 34970 ft | 480 kts | 186° |
| 2026-04-23 12:01 | 60.16678 | 38.19412 | 34967 ft | 480 kts | 186° |
| 2026-04-23 12:02 | 60.10010 | 38.18069 | 34967 ft | 481 kts | 186° |
| 2026-04-23 12:02 | 60.04460 | 38.16955 | 34968 ft | 480 kts | 186° |
| 2026-04-23 12:03 | 59.97835 | 38.15632 | 34965 ft | 480 kts | 186° |
| 2026-04-23 12:03 | 59.91164 | 38.14304 | 34960 ft | 480 kts | 186° |
| 2026-04-23 12:04 | 59.84544 | 38.12993 | 34956 ft | 480 kts | 186° |
| 2026-04-23 12:04 | 59.77873 | 38.11676 | 34957 ft | 480 kts | 186° |
| 2026-04-23 12:05 | 59.71199 | 38.10361 | 34955 ft | 481 kts | 186° |
| 2026-04-23 12:05 | 59.64565 | 38.09060 | 34952 ft | 481 kts | 186° |
| 2026-04-23 12:06 | 59.57887 | 38.07762 | 34948 ft | 481 kts | 186° |
| 2026-04-23 12:06 | 59.47919 | 38.05833 | 34948 ft | 481 kts | 186° |
| 2026-04-23 12:07 | 59.41251 | 38.04548 | 34948 ft | 481 kts | 186° |
| 2026-04-23 12:07 | 59.34581 | 38.03268 | 34947 ft | 481 kts | 186° |
| 2026-04-23 12:08 | 59.27953 | 38.02001 | 34951 ft | 481 kts | 186° |
| 2026-04-23 12:08 | 59.21286 | 38.00855 | 34949 ft | 480 kts | 185° |
| 2026-04-23 12:09 | 59.14594 | 37.99795 | 34948 ft | 480 kts | 185° |
| 2026-04-23 12:09 | 59.07962 | 37.98729 | 34941 ft | 480 kts | 185° |
| 2026-04-23 12:10 | 59.01318 | 37.97653 | 34934 ft | 480 kts | 185° |
| 2026-04-23 12:10 | 58.94646 | 37.96576 | 34928 ft | 480 kts | 185° |
| 2026-04-23 12:11 | 58.87983 | 37.95505 | 34924 ft | 479 kts | 185° |
| 2026-04-23 12:11 | 58.81360 | 37.94445 | 34924 ft | 479 kts | 185° |
| 2026-04-23 12:12 | 58.74687 | 37.93387 | 34919 ft | 481 kts | 185° |
| 2026-04-23 12:12 | 58.68051 | 37.92338 | 34917 ft | 479 kts | 185° |
| 2026-04-23 12:13 | 58.61357 | 37.91390 | 34916 ft | 482 kts | 184° |
| 2026-04-23 12:13 | 58.54699 | 37.90511 | 34916 ft | 481 kts | 184° |
| 2026-04-23 12:14 | 58.48030 | 37.89617 | 34917 ft | 479 kts | 184° |
| 2026-04-23 12:14 | 58.41371 | 37.88719 | 34916 ft | 483 kts | 184° |
| 2026-04-23 12:15 | 58.34657 | 37.87816 | 34912 ft | 486 kts | 184° |
| 2026-04-23 12:15 | 58.27936 | 37.86917 | 34912 ft | 482 kts | 184° |
| 2026-04-23 12:16 | 58.21225 | 37.86022 | 34914 ft | 484 kts | 184° |
| 2026-04-23 12:16 | 58.14519 | 37.85131 | 34907 ft | 482 kts | 184° |
| 2026-04-23 12:17 | 58.07856 | 37.84249 | 34905 ft | 482 kts | 184° |
| 2026-04-23 12:17 | 58.01146 | 37.83364 | 34906 ft | 482 kts | 184° |
| 2026-04-23 12:18 | 57.94481 | 37.82489 | 34903 ft | 482 kts | 184° |
| 2026-04-23 12:18 | 57.87787 | 37.81613 | 34756 ft | 480 kts | 184° |
| 2026-04-23 12:19 | 57.84488 | 37.81183 | 34293 ft | 479 kts | 185° |
| 2026-04-23 12:19 | 57.81149 | 37.80745 | 33595 ft | 481 kts | 185° |
| 2026-04-23 12:19 | 57.77783 | 37.80273 | 32686 ft | 484 kts | 185° |
| 2026-04-23 12:19 | 57.74433 | 37.79789 | 31579 ft | 481 kts | 185° |
| 2026-04-23 12:20 | 57.71102 | 37.79306 | 30501 ft | 478 kts | 185° |
| 2026-04-23 12:20 | 57.67837 | 37.78838 | 29425 ft | 474 kts | 185° |
| 2026-04-23 12:20 | 57.64560 | 37.78372 | 28300 ft | 467 kts | 186° |
| 2026-04-23 12:20 | 57.61356 | 37.77918 | 27648 ft | 450 kts | 186° |
| 2026-04-23 12:21 | 57.58267 | 37.77484 | 27090 ft | 440 kts | 186° |
| 2026-04-23 12:21 | 57.55235 | 37.77057 | 26526 ft | 433 kts | 186° |
| 2026-04-23 12:21 | 57.52290 | 37.76641 | 25975 ft | 426 kts | 186° |
| 2026-04-23 12:21 | 57.49355 | 37.76226 | 25430 ft | 419 kts | 186° |
| 2026-04-23 12:22 | 57.46462 | 37.75819 | 24875 ft | 412 kts | 186° |
| 2026-04-23 12:22 | 57.43619 | 37.75434 | 24346 ft | 406 kts | 186° |
| 2026-04-23 12:22 | 57.40815 | 37.75071 | 23813 ft | 400 kts | 186° |
| 2026-04-23 12:22 | 57.38088 | 37.74722 | 23287 ft | 395 kts | 186° |
| 2026-04-23 12:23 | 57.35357 | 37.74372 | 22705 ft | 390 kts | 186° |
| 2026-04-23 12:23 | 57.32675 | 37.74027 | 22192 ft | 382 kts | 186° |
| 2026-04-23 12:23 | 57.30041 | 37.73687 | 21680 ft | 374 kts | 186° |
| 2026-04-23 12:23 | 57.27462 | 37.73354 | 21176 ft | 368 kts | 186° |
| 2026-04-23 12:24 | 57.24918 | 37.73025 | 20688 ft | 362 kts | 186° |
| 2026-04-23 12:24 | 57.22455 | 37.72707 | 20195 ft | 357 kts | 186° |
| 2026-04-23 12:24 | 57.19988 | 37.72390 | 19703 ft | 352 kts | 186° |
| 2026-04-23 12:24 | 57.17556 | 37.72076 | 19232 ft | 347 kts | 186° |
| 2026-04-23 12:25 | 57.15158 | 37.71767 | 18758 ft | 343 kts | 186° |
| 2026-04-23 12:25 | 57.12806 | 37.71437 | 18286 ft | 339 kts | 188° |
| 2026-04-23 12:25 | 57.10495 | 37.70683 | 17819 ft | 335 kts | 195° |
| 2026-04-23 12:25 | 57.08286 | 37.69390 | 17469 ft | 332 kts | 202° |
| 2026-04-23 12:26 | 57.06069 | 37.67708 | 17110 ft | 357 kts | 203° |
| 2026-04-23 12:26 | 57.03745 | 37.65957 | 16735 ft | 362 kts | 203° |
| 2026-04-23 12:26 | 57.01446 | 37.64241 | 16374 ft | 357 kts | 202° |
| 2026-04-23 12:26 | 56.99150 | 37.62538 | 16008 ft | 352 kts | 202° |
| 2026-04-23 12:27 | 56.96875 | 37.60854 | 15644 ft | 352 kts | 202° |
| 2026-04-23 12:27 | 56.94593 | 37.59166 | 15280 ft | 353 kts | 202° |
| 2026-04-23 12:27 | 56.92306 | 37.57477 | 14917 ft | 353 kts | 202° |
| 2026-04-23 12:27 | 56.90063 | 37.55822 | 14478 ft | 353 kts | 202° |
| 2026-04-23 12:28 | 56.87756 | 37.54122 | 13691 ft | 360 kts | 202° |
| 2026-04-23 12:28 | 56.85444 | 37.52420 | 13288 ft | 353 kts | 202° |
| 2026-04-23 12:28 | 56.83194 | 37.50766 | 13007 ft | 347 kts | 202° |
| 2026-04-23 12:28 | 56.80935 | 37.49108 | 12647 ft | 350 kts | 202° |
| 2026-04-23 12:29 | 56.78675 | 37.47451 | 12288 ft | 348 kts | 202° |
| 2026-04-23 12:29 | 56.76457 | 37.45828 | 11934 ft | 345 kts | 202° |
| 2026-04-23 12:29 | 56.74226 | 37.44197 | 11582 ft | 345 kts | 202° |
| 2026-04-23 12:29 | 56.71991 | 37.42565 | 11226 ft | 344 kts | 202° |
| 2026-04-23 12:30 | 56.69765 | 37.40942 | 10873 ft | 343 kts | 202° |
| 2026-04-23 12:30 | 56.67573 | 37.39345 | 10524 ft | 342 kts | 202° |
| 2026-04-23 12:30 | 56.65366 | 37.37724 | 10220 ft | 340 kts | 202° |
| 2026-04-23 12:30 | 56.63192 | 37.36079 | 10090 ft | 333 kts | 203° |
| 2026-04-23 12:31 | 56.61088 | 37.34472 | 9982 ft | 322 kts | 203° |
| 2026-04-23 12:31 | 56.59059 | 37.32925 | 9859 ft | 309 kts | 203° |
| 2026-04-23 12:31 | 56.57128 | 37.31459 | 9622 ft | 301 kts | 203° |
| 2026-04-23 12:31 | 56.55201 | 37.30001 | 9266 ft | 298 kts | 203° |
| 2026-04-23 12:32 | 56.53312 | 37.28575 | 9067 ft | 288 kts | 202° |
| 2026-04-23 12:32 | 56.51465 | 37.27244 | 8944 ft | 285 kts | 201° |
| 2026-04-23 12:32 | 56.49606 | 37.25967 | 8651 ft | 287 kts | 201° |
| 2026-04-23 12:32 | 56.47732 | 37.24693 | 8459 ft | 287 kts | 201° |
| 2026-04-23 12:33 | 56.45851 | 37.23409 | 8281 ft | 297 kts | 201° |
| 2026-04-23 12:33 | 56.43846 | 37.22368 | 8092 ft | 301 kts | 186° |
| 2026-04-23 12:33 | 56.41766 | 37.22546 | 7903 ft | 297 kts | 166° |
| 2026-04-23 12:33 | 56.39770 | 37.23367 | 7710 ft | 291 kts | 165° |
| 2026-04-23 12:34 | 56.37820 | 37.24165 | 7528 ft | 290 kts | 165° |
| 2026-04-23 12:34 | 56.35838 | 37.24965 | 7347 ft | 292 kts | 165° |
| 2026-04-23 12:34 | 56.33844 | 37.25765 | 7157 ft | 291 kts | 165° |
| 2026-04-23 12:34 | 56.31894 | 37.26543 | 6976 ft | 289 kts | 165° |
| 2026-04-23 12:35 | 56.29921 | 37.27329 | 6784 ft | 290 kts | 165° |
| 2026-04-23 12:35 | 56.27947 | 37.28113 | 6598 ft | 290 kts | 165° |
| 2026-04-23 12:35 | 56.25972 | 37.28896 | 6415 ft | 290 kts | 165° |
| 2026-04-23 12:35 | 56.24037 | 37.29689 | 6231 ft | 288 kts | 163° |
| 2026-04-23 12:36 | 56.22100 | 37.30631 | 6050 ft | 286 kts | 161° |
| 2026-04-23 12:36 | 56.20240 | 37.31591 | 5971 ft | 277 kts | 161° |
| 2026-04-23 12:36 | 56.18401 | 37.32448 | 5863 ft | 268 kts | 171° |
| 2026-04-23 12:36 | 56.16576 | 37.32100 | 5649 ft | 263 kts | 201° |
| 2026-04-23 12:37 | 56.15099 | 37.30331 | 5336 ft | 254 kts | 233° |
| 2026-04-23 12:37 | 56.14331 | 37.27581 | 5226 ft | 248 kts | 262° |
| 2026-04-23 12:37 | 56.14105 | 37.24530 | 5074 ft | 244 kts | 270° |
| 2026-04-23 12:37 | 56.13958 | 37.21555 | 4926 ft | 242 kts | 269° |
| 2026-04-23 12:38 | 56.13726 | 37.18547 | 4782 ft | 243 kts | 265° |
| 2026-04-23 12:38 | 56.13399 | 37.15556 | 4638 ft | 244 kts | 262° |
| 2026-04-23 12:38 | 56.13013 | 37.12597 | 4491 ft | 243 kts | 261° |
| 2026-04-23 12:38 | 56.12604 | 37.09689 | 4334 ft | 243 kts | 261° |
| 2026-04-23 12:39 | 56.12172 | 37.06759 | 4172 ft | 243 kts | 257° |
| 2026-04-23 12:39 | 56.11277 | 37.04159 | 4020 ft | 252 kts | 225° |
| 2026-04-23 12:39 | 56.09842 | 37.02320 | 3868 ft | 255 kts | 215° |
| 2026-04-23 12:39 | 56.08352 | 37.00617 | 3704 ft | 253 kts | 214° |
| 2026-04-23 12:40 | 56.06868 | 36.98933 | 3547 ft | 252 kts | 214° |
| 2026-04-23 12:40 | 56.05395 | 36.97248 | 3386 ft | 250 kts | 215° |
| 2026-04-23 12:40 | 56.03935 | 36.95562 | 3236 ft | 250 kts | 216° |
| 2026-04-23 12:40 | 56.02476 | 36.93867 | 3078 ft | 250 kts | 216° |
| 2026-04-23 12:41 | 56.01035 | 36.92191 | 3038 ft | 241 kts | 216° |
| 2026-04-23 12:41 | 55.99575 | 36.90984 | 3038 ft | 226 kts | 188° |
| 2026-04-23 12:41 | 55.98109 | 36.91269 | 3069 ft | 208 kts | 153° |
| 2026-04-23 12:41 | 55.96931 | 36.92536 | 3037 ft | 184 kts | 136° |
| 2026-04-23 12:42 | 55.96024 | 36.93881 | 3036 ft | 162 kts | 131° |
| 2026-04-23 12:42 | 55.95146 | 36.95239 | 3042 ft | 167 kts | 133° |
| 2026-04-23 12:42 | 55.94278 | 36.96478 | 3036 ft | 154 kts | 135° |
| 2026-04-23 12:42 | 55.93424 | 36.97619 | 3045 ft | 155 kts | 137° |
| 2026-04-23 12:43 | 55.92558 | 36.98730 | 3045 ft | 153 kts | 137° |
| 2026-04-23 12:43 | 55.91705 | 36.99878 | 3029 ft | 149 kts | 125° |
| 2026-04-23 12:43 | 55.91297 | 37.01438 | 3019 ft | 134 kts | 84° |
| 2026-04-23 12:43 | 55.91366 | 37.03042 | 2905 ft | 127 kts | 68° |
| 2026-04-23 12:44 | 55.91573 | 37.04570 | 2620 ft | 127 kts | 64° |
| 2026-04-23 12:44 | 55.91812 | 37.06104 | 2542 ft | 130 kts | 64° |
| 2026-04-23 12:44 | 55.92043 | 37.07638 | 2533 ft | 130 kts | 65° |
| 2026-04-23 12:44 | 55.92277 | 37.09192 | 2539 ft | 130 kts | 65° |
| 2026-04-23 12:45 | 55.92510 | 37.10750 | 2523 ft | 130 kts | 65° |
| 2026-04-23 12:45 | 55.92745 | 37.12305 | 2541 ft | 129 kts | 65° |
| 2026-04-23 12:45 | 55.92979 | 37.13861 | 2538 ft | 129 kts | 65° |
| 2026-04-23 12:45 | 55.93213 | 37.15412 | 2540 ft | 131 kts | 65° |
| 2026-04-23 12:46 | 55.93449 | 37.16975 | 2536 ft | 132 kts | 65° |
| 2026-04-23 12:46 | 55.93684 | 37.18549 | 2526 ft | 129 kts | 65° |
| 2026-04-23 12:46 | 55.93919 | 37.20106 | 2519 ft | 131 kts | 65° |
| 2026-04-23 12:46 | 55.94151 | 37.21645 | 2527 ft | 130 kts | 65° |
| 2026-04-23 12:47 | 55.94387 | 37.23217 | 2516 ft | 131 kts | 65° |
| 2026-04-23 12:47 | 55.94624 | 37.24788 | 2346 ft | 131 kts | 65° |
| 2026-04-23 12:47 | 55.94858 | 37.26345 | 2165 ft | 129 kts | 65° |
| 2026-04-23 12:47 | 55.95092 | 37.27898 | 1988 ft | 131 kts | 65° |
| 2026-04-23 12:48 | 55.95326 | 37.29454 | 1802 ft | 130 kts | 66° |
| 2026-04-23 12:48 | 55.95558 | 37.31005 | 1628 ft | 129 kts | 66° |
| 2026-04-23 12:48 | 55.95793 | 37.32559 | 1436 ft | 131 kts | 66° |
| 2026-04-23 12:48 | 55.96029 | 37.34136 | 1260 ft | 132 kts | 68° |
| 2026-04-23 12:49 | 55.96271 | 37.35730 | 1062 ft | 133 kts | 69° |
| 2026-04-23 12:49 | 55.96516 | 37.37331 | 860 ft | 134 kts | 70° |
| 2026-04-23 12:49 | 55.96675 | 37.38402 | 726 ft | 134 kts | 70° |
| 2026-04-23 12:49 | 55.96915 | 37.39949 | 643 ft | 116 kts | 73° |
| 2026-04-23 12:50 | 55.97061 | 37.40924 | 641 ft | 31 kts | 75° |
| 2026-04-23 12:50 | 55.97128 | 37.41311 | 642 ft | 22 kts | 37° |
| 2026-04-23 12:50 | 55.97225 | 37.41317 | 639 ft | 0 kts | 343° |
| 2026-04-23 12:50 | 55.97253 | 37.41303 | 639 ft | 11 kts | 343° |
| 2026-04-23 12:51 | 55.97309 | 37.41278 | 639 ft | 13 kts | 346° |
| 2026-04-23 12:51 | 55.97407 | 37.41233 | 639 ft | 16 kts | 345° |
| 2026-04-23 12:51 | 55.97521 | 37.41177 | 639 ft | 18 kts | 344° |
| 2026-04-23 12:51 | 55.97624 | 37.41197 | 639 ft | 15 kts | 59° |
| 2026-04-23 12:52 | 55.97654 | 37.41390 | 642 ft | 17 kts | 75° |
| 2026-04-23 12:52 | 55.97709 | 37.41521 | 639 ft | 12 kts | 1° |
| 2026-04-23 12:52 | 55.97795 | 37.41481 | 639 ft | 14 kts | 344° |
| 2026-04-23 12:52 | 55.97817 | 37.41470 | 639 ft | 2 kts | 344° |
| 2026-04-23 12:53 | 55.97840 | 37.41464 | 639 ft | 4 kts | 8° |
| 2026-04-23 12:53 | 55.97863 | 37.41495 | 639 ft | 0 kts | 55° |
| 2026-04-23 12:53 | 55.97873 | 37.41506 | 639 ft | 2 kts | 18° |
| 2026-04-23 12:53 | 55.97901 | 37.41503 | 640 ft | 6 kts | 351° |
| 2026-04-23 12:54 | 55.97948 | 37.41508 | 640 ft | 7 kts | 45° |